createdAt,value
2023-05-15T00:00:17.364Z,17.45
2023-05-15T00:02:21.049Z,17.17
2023-05-15T00:04:23.245Z,17.02
2023-05-15T00:06:25.469Z,17.50
2023-05-15T00:08:27.434Z,17.45
2023-05-15T00:10:29.452Z,18.42
2023-05-15T00:12:31.451Z,19.77
2023-05-15T00:14:33.482Z,16.08
2023-05-15T00:16:35.847Z,17.42
2023-05-15T00:18:39.439Z,20.80
2023-05-15T00:20:41.562Z,16.13
2023-05-15T00:22:43.523Z,15.77
2023-05-15T00:24:45.457Z,16.88
2023-05-15T00:26:47.460Z,16.83
2023-05-15T00:28:49.462Z,16.85
2023-05-15T00:30:52.306Z,13.55
2023-05-15T00:32:54.345Z,16.75
2023-05-15T00:34:57.692Z,16.65
2023-05-15T00:36:59.822Z,16.77
2023-05-15T00:39:01.896Z,16.17
2023-05-15T00:41:06.333Z,18.50
2023-05-15T00:43:09.788Z,18.55
2023-05-15T00:45:12.984Z,20.63
2023-05-15T00:47:17.436Z,18.60
2023-05-15T00:49:21.824Z,16.83
2023-05-15T00:51:26.069Z,17.85
2023-05-15T00:53:28.989Z,23.30
2023-05-15T00:55:32.686Z,21.35
2023-05-15T00:57:34.975Z,18.90
2023-05-15T00:59:39.104Z,18.92
2023-05-15T01:01:41.246Z,19.60
2023-05-15T01:03:43.610Z,19.25
2023-05-15T01:05:45.848Z,19.92
2023-05-15T01:07:57.355Z,22.35
2023-05-15T01:10:00.840Z,23.42
2023-05-15T01:12:04.869Z,20.05
2023-05-15T01:14:08.739Z,20.07
2023-05-15T01:16:11.423Z,23.60
2023-05-15T01:18:13.643Z,22.63
2023-05-15T01:20:19.522Z,20.00
2023-05-15T01:22:40.672Z,21.67
2023-05-15T01:25:08.110Z,23.42
2023-05-15T01:27:20.854Z,26.30
2023-05-15T01:29:27.320Z,21.15
2023-05-15T01:31:33.573Z,25.42
2023-05-15T01:33:40.903Z,24.88
2023-05-15T01:35:49.512Z,26.63
2023-05-15T01:38:00.565Z,26.98
2023-05-15T01:40:05.218Z,30.40
2023-05-15T01:42:09.753Z,29.67
2023-05-15T01:44:18.275Z,33.25
2023-05-15T01:46:23.198Z,30.75
2023-05-15T01:48:27.606Z,31.80
2023-05-15T01:50:32.851Z,35.42
2023-05-15T01:52:38.488Z,33.00
2023-05-15T01:54:42.060Z,34.63
2023-05-15T01:56:45.341Z,36.25
2023-05-15T01:58:49.408Z,32.75
2023-05-15T02:00:53.251Z,33.07
2023-05-15T02:02:56.506Z,35.72
2023-05-15T02:04:59.510Z,37.95
2023-05-15T02:07:04.111Z,37.63
2023-05-15T02:09:06.757Z,41.20
2023-05-15T02:11:09.837Z,41.55
2023-05-15T02:13:13.469Z,39.90
2023-05-15T02:15:18.274Z,40.75
2023-05-15T02:17:23.179Z,43.25
2023-05-15T02:21:27.028Z,41.33
2023-05-15T02:23:28.989Z,43.42
2023-05-15T02:25:38.633Z,41.47
2023-05-15T02:27:48.587Z,41.67
2023-05-15T02:30:03.440Z,40.97
2023-05-15T02:32:11.892Z,39.67
2023-05-15T02:34:21.700Z,42.80
2023-05-15T02:36:29.036Z,43.17
2023-05-15T02:38:35.454Z,38.17
2023-05-15T02:40:38.047Z,40.33
2023-05-15T02:42:40.978Z,36.30
2023-05-15T02:44:44.086Z,38.58
2023-05-15T02:46:46.747Z,34.90
2023-05-15T02:48:49.110Z,38.38
2023-05-15T02:50:53.957Z,39.00
2023-05-15T02:53:02.444Z,35.97
2023-05-15T02:55:05.054Z,36.38
2023-05-15T02:57:08.110Z,34.20
2023-05-15T02:59:10.356Z,41.58
2023-05-15T03:01:12.585Z,39.17
2023-05-15T03:03:14.599Z,37.75
2023-05-15T03:05:16.600Z,36.55
2023-05-15T03:07:20.305Z,41.00
2023-05-15T03:09:22.224Z,38.63
2023-05-15T03:11:24.204Z,35.75
2023-05-15T03:13:26.281Z,43.97
2023-05-15T03:15:28.689Z,38.13
2023-05-15T03:17:30.772Z,41.08
2023-05-15T03:19:32.756Z,39.00
2023-05-15T03:21:35.243Z,40.92
2023-05-15T03:23:38.523Z,43.42
2023-05-15T03:25:40.627Z,36.35
2023-05-15T03:27:42.882Z,36.35
2023-05-15T03:29:44.853Z,36.92
2023-05-15T03:31:46.872Z,35.17
2023-05-15T03:33:50.634Z,38.45
2023-05-15T03:35:52.887Z,36.67
2023-05-15T03:37:54.891Z,34.97
2023-05-15T03:39:58.400Z,37.30
2023-05-15T03:42:00.360Z,37.35
2023-05-15T03:44:02.455Z,37.58
2023-05-15T03:46:05.588Z,39.00
2023-05-15T03:48:07.876Z,37.67
2023-05-15T03:50:10.794Z,35.55
2023-05-15T03:52:13.075Z,34.85
2023-05-15T03:54:15.147Z,37.15
2023-05-15T03:56:18.650Z,36.42
2023-05-15T03:58:20.763Z,34.13
2023-05-15T04:00:23.728Z,37.13
2023-05-15T04:02:25.997Z,40.47
2023-05-15T04:04:27.996Z,37.85
2023-05-15T04:06:30.026Z,37.10
2023-05-15T04:08:31.964Z,38.20
2023-05-15T04:10:33.882Z,42.17
2023-05-15T04:12:39.737Z,33.33
2023-05-15T04:14:41.690Z,40.97
2023-05-15T04:16:43.827Z,38.30
2023-05-15T04:18:45.897Z,43.33
2023-05-15T04:20:47.812Z,38.15
2023-05-15T04:22:50.666Z,34.25
2023-05-15T04:24:52.678Z,38.60
2023-05-15T04:26:55.060Z,39.05
2023-05-15T04:29:04.071Z,39.65
2023-05-15T04:31:06.973Z,35.97
2023-05-15T04:33:09.030Z,36.83
2023-05-15T04:35:13.433Z,41.40
2023-05-15T04:37:15.640Z,40.75
2023-05-15T04:39:17.602Z,37.67
2023-05-15T04:41:19.630Z,40.22
2023-05-15T04:43:21.583Z,40.45
2023-05-15T04:45:25.130Z,38.78
2023-05-15T04:47:27.324Z,37.42
2023-05-15T04:49:29.333Z,43.08
2023-05-15T04:51:31.278Z,42.53
2023-05-15T04:53:33.475Z,41.85
2023-05-15T04:55:35.717Z,39.50
2023-05-15T04:57:37.764Z,41.15
2023-05-15T04:59:39.893Z,38.97
2023-05-15T05:01:43.418Z,32.97
2023-05-15T05:03:45.422Z,36.35
2023-05-15T05:05:47.416Z,42.92
2023-05-15T05:07:51.481Z,40.05
2023-05-15T05:09:53.469Z,42.05
2023-05-15T05:11:55.436Z,41.22
2023-05-15T05:13:57.557Z,40.88
2023-05-15T05:15:59.632Z,39.50
2023-05-15T05:18:03.086Z,38.70
2023-05-15T05:20:10.625Z,43.53
2023-05-15T05:22:14.739Z,41.33
2023-05-15T05:24:16.703Z,42.40
2023-05-15T05:26:18.736Z,39.05
2023-05-15T05:28:20.750Z,38.45
2023-05-15T05:30:23.036Z,36.72
2023-05-15T05:32:25.243Z,40.10
2023-05-15T05:34:28.965Z,45.10
2023-05-15T05:36:31.027Z,45.13
2023-05-15T05:38:33.218Z,40.85
2023-05-15T05:40:35.370Z,44.80
2023-05-15T05:42:37.333Z,38.80
2023-05-15T05:44:39.349Z,47.55
2023-05-15T05:46:41.387Z,46.53
2023-05-15T05:48:43.400Z,49.22
2023-05-15T05:50:46.775Z,45.03
2023-05-15T05:52:49.020Z,50.22
2023-05-15T05:54:50.918Z,49.05
2023-05-15T05:56:52.916Z,47.25
2023-05-15T05:58:56.441Z,50.33
2023-05-15T06:00:58.553Z,54.58
2023-05-15T06:03:00.852Z,42.97
2023-05-15T06:05:03.461Z,44.72
2023-05-15T06:07:07.412Z,55.13
2023-05-15T06:09:09.878Z,42.00
2023-05-15T06:11:44.093Z,53.50
2023-05-15T06:13:56.840Z,60.78
2023-05-15T06:16:54.702Z,49.28
2023-05-15T06:19:01.305Z,55.65
2023-05-15T06:21:03.916Z,48.35
2023-05-15T06:23:07.413Z,41.70
2023-05-15T06:25:14.658Z,46.30
2023-05-15T06:27:19.528Z,52.35
2023-05-15T06:31:25.222Z,45.63
2023-05-15T06:33:27.524Z,49.00
2023-05-15T06:35:29.905Z,56.30
2023-05-15T06:37:31.952Z,47.00
2023-05-15T06:39:35.326Z,44.35
2023-05-15T06:41:37.697Z,46.92
2023-05-15T06:43:39.722Z,50.47
2023-05-15T06:45:41.936Z,42.22
2023-05-15T06:47:43.973Z,54.22
2023-05-15T06:49:46.112Z,51.83
2023-05-15T06:51:48.192Z,51.38
2023-05-15T06:53:50.132Z,52.75
2023-05-15T06:55:53.526Z,45.83
2023-05-15T06:57:55.544Z,49.67
2023-05-15T06:59:57.835Z,47.55
2023-05-15T07:02:00.251Z,52.13
2023-05-15T07:04:02.550Z,46.92
2023-05-15T07:06:04.591Z,52.92
2023-05-15T07:08:06.750Z,50.33
2023-05-15T07:10:09.572Z,45.72
2023-05-15T07:12:12.968Z,42.75
2023-05-15T07:14:14.998Z,46.17
2023-05-15T07:16:16.998Z,43.00
2023-05-15T07:18:19.071Z,37.67
2023-05-15T07:20:21.328Z,38.60
2023-05-15T07:22:23.363Z,42.35
2023-05-15T07:24:25.354Z,39.72
2023-05-15T07:26:32.809Z,41.60
2023-05-15T07:28:39.878Z,35.17
2023-05-15T07:30:41.923Z,29.88
2023-05-15T07:32:44.078Z,37.55
2023-05-15T07:34:46.104Z,36.70
2023-05-15T07:36:48.098Z,35.20
2023-05-15T07:38:50.060Z,35.38
2023-05-15T07:40:52.133Z,29.80
2023-05-15T07:42:54.216Z,33.97
2023-05-15T07:44:57.577Z,38.00
2023-05-15T07:46:59.796Z,32.35
2023-05-15T07:49:01.926Z,32.08
2023-05-15T07:51:04.325Z,30.65
2023-05-15T07:53:06.533Z,30.27
2023-05-15T07:55:09.312Z,34.42
2023-05-15T07:57:12.905Z,34.63
2023-05-15T07:59:15.228Z,34.85
2023-05-15T08:01:18.845Z,34.75
2023-05-15T08:03:21.161Z,41.53
2023-05-15T08:05:23.341Z,32.47
2023-05-15T08:07:25.583Z,33.25
2023-05-15T08:09:27.641Z,38.97
2023-05-15T08:11:29.690Z,37.63
2023-05-15T08:13:31.733Z,36.72
2023-05-15T08:15:33.715Z,36.42
2023-05-15T08:17:37.088Z,32.80
2023-05-15T08:19:39.080Z,30.90
2023-05-15T08:21:41.213Z,28.40
2023-05-15T08:23:43.216Z,31.42
2023-05-15T08:25:45.261Z,35.00
2023-05-15T08:27:47.244Z,28.33
2023-05-15T08:29:49.206Z,29.05
2023-05-15T08:31:51.563Z,32.25
2023-05-15T08:33:54.913Z,31.27
2023-05-15T08:35:56.864Z,29.75
2023-05-15T08:37:58.926Z,34.45
2023-05-15T08:40:00.907Z,28.42
2023-05-15T08:42:18.283Z,33.17
2023-05-15T08:44:23.537Z,27.23
2023-05-15T08:46:27.025Z,31.35
2023-05-15T08:48:30.229Z,32.33
2023-05-15T08:50:34.319Z,31.23
2023-05-15T08:52:36.622Z,31.00
2023-05-15T08:54:40.409Z,27.17
2023-05-15T08:56:43.177Z,31.52
2023-05-15T08:58:46.118Z,34.58
2023-05-15T09:00:48.885Z,29.90
2023-05-15T09:02:51.254Z,29.70
2023-05-15T09:04:53.688Z,32.47
2023-05-15T09:06:58.910Z,31.10
2023-05-15T09:09:02.211Z,26.92
2023-05-15T09:11:05.568Z,26.55
2023-05-15T09:13:09.225Z,31.85
2023-05-15T09:15:13.204Z,32.35
2023-05-15T09:17:15.241Z,25.48
2023-05-15T09:19:18.955Z,29.23
2023-05-15T09:21:25.554Z,25.42
2023-05-15T09:23:28.951Z,30.42
2023-05-15T09:25:38.486Z,32.65
2023-05-15T09:27:43.647Z,29.35
2023-05-15T09:29:45.969Z,25.85
2023-05-15T09:31:48.306Z,25.00
2023-05-15T09:34:00.734Z,30.33
2023-05-15T09:36:04.042Z,26.70
2023-05-15T09:38:09.622Z,26.20
2023-05-15T09:40:14.442Z,27.15
2023-05-15T09:42:16.432Z,28.25
2023-05-15T09:44:21.609Z,33.85
2023-05-15T09:46:24.736Z,32.65
2023-05-15T09:48:28.253Z,37.20
2023-05-15T09:50:35.007Z,34.90
2023-05-15T09:52:37.259Z,36.85
2023-05-15T09:54:40.056Z,37.58
2023-05-15T09:56:43.582Z,39.55
2023-05-15T09:58:55.461Z,40.85
2023-05-15T10:01:01.021Z,41.85
2023-05-15T10:03:04.617Z,40.13
2023-05-15T10:05:07.695Z,38.97
2023-05-15T10:07:10.132Z,31.88
2023-05-15T10:09:14.219Z,34.92
2023-05-15T10:11:16.401Z,39.33
2023-05-15T10:13:20.844Z,35.90
2023-05-15T10:15:23.122Z,32.80
2023-05-15T10:17:26.412Z,34.45
2023-05-15T10:19:29.883Z,37.72
2023-05-15T10:21:34.077Z,40.78
2023-05-15T10:23:36.706Z,33.85
2023-05-15T10:25:42.459Z,32.20
2023-05-15T10:27:47.204Z,36.78
2023-05-15T10:29:51.580Z,32.60
2023-05-15T10:31:54.258Z,36.97
2023-05-15T10:33:57.064Z,33.30
2023-05-15T10:35:59.952Z,32.42
2023-05-15T10:38:05.274Z,31.25
2023-05-15T10:40:10.410Z,38.22
2023-05-15T10:42:13.484Z,36.08
2023-05-15T10:44:16.860Z,39.40
2023-05-15T10:46:21.445Z,30.20
2023-05-15T10:48:24.255Z,34.20
2023-05-15T10:50:27.637Z,31.70
2023-05-15T10:52:31.885Z,33.13
2023-05-15T10:54:35.547Z,29.48
2023-05-15T10:56:38.842Z,31.27
2023-05-15T10:58:46.796Z,29.45
2023-05-15T11:00:48.749Z,29.75
2023-05-15T11:02:56.702Z,26.05
2023-05-15T11:05:00.037Z,19.08
2023-05-15T11:07:12.993Z,23.42
2023-05-15T11:09:34.745Z,24.05
2023-05-15T11:11:57.716Z,23.67
2023-05-15T11:14:12.758Z,26.23
2023-05-15T11:16:34.768Z,22.80
2023-05-15T11:18:38.545Z,22.45
2023-05-15T11:20:42.623Z,19.75
2023-05-15T11:22:57.937Z,17.63
2023-05-15T11:27:04.767Z,32.78
2023-05-15T11:29:18.744Z,21.80
2023-05-15T11:31:30.381Z,17.80
2023-05-15T11:33:32.568Z,21.25
2023-05-15T11:35:39.527Z,16.00
2023-05-15T11:37:43.400Z,17.52
2023-05-15T11:39:46.167Z,18.63
2023-05-15T11:41:48.394Z,21.48
2023-05-15T11:43:50.787Z,17.52
2023-05-15T11:45:56.034Z,16.95
2023-05-15T11:48:00.449Z,21.13
2023-05-15T11:50:05.051Z,18.65
2023-05-15T11:52:08.930Z,17.42
2023-05-15T11:54:11.987Z,17.38
2023-05-15T11:56:18.421Z,17.98
2023-05-15T11:58:22.031Z,13.55
2023-05-15T12:00:24.791Z,13.48
2023-05-15T12:02:28.037Z,21.13
2023-05-15T12:04:33.991Z,17.70
2023-05-15T12:06:35.994Z,20.23
2023-05-15T12:08:39.421Z,19.25
2023-05-15T12:10:42.197Z,22.25
2023-05-15T12:12:46.175Z,25.73
2023-05-15T12:14:48.148Z,23.35
2023-05-15T12:16:52.452Z,19.45
2023-05-15T12:18:56.603Z,19.55
2023-05-15T12:20:59.023Z,24.70
2023-05-15T12:23:01.037Z,33.50
2023-05-15T12:25:05.673Z,19.50
2023-05-15T12:27:08.687Z,40.67
2023-05-15T12:29:10.888Z,15.52
2023-05-15T12:31:13.300Z,15.15
2023-05-15T12:33:15.695Z,15.43
2023-05-15T12:35:17.890Z,15.30
2023-05-15T12:37:23.018Z,16.25
2023-05-15T12:39:25.022Z,20.15
2023-05-15T12:41:31.355Z,17.92
2023-05-15T12:43:33.949Z,17.77
2023-05-15T12:45:38.813Z,20.95
2023-05-15T12:49:43.253Z,65.45
2023-05-15T12:51:45.661Z,22.48
2023-05-15T12:53:48.105Z,18.48
2023-05-15T12:55:51.447Z,17.83
2023-05-15T12:57:57.730Z,23.80
2023-05-15T13:00:00.012Z,15.52
2023-05-15T13:02:02.106Z,14.48
2023-05-15T13:04:04.132Z,14.68
2023-05-15T13:06:07.277Z,17.40
2023-05-15T13:08:09.452Z,21.55
2023-05-15T13:10:12.716Z,14.73
2023-05-15T13:12:18.787Z,21.20
2023-05-15T13:14:26.958Z,11.50
2023-05-15T13:16:29.988Z,8.13
2023-05-15T13:18:32.228Z,9.15
2023-05-15T13:20:36.015Z,7.05
2023-05-15T13:22:38.349Z,10.55
2023-05-15T13:24:40.442Z,13.35
2023-05-15T13:26:42.503Z,13.55
2023-05-15T13:28:44.516Z,26.42
2023-05-15T13:30:47.823Z,7.38
2023-05-15T13:32:49.977Z,13.98
2023-05-15T13:34:54.724Z,10.43
2023-05-15T13:36:56.783Z,13.60
2023-05-15T13:38:58.835Z,11.13
2023-05-15T13:41:00.897Z,8.98
2023-05-15T13:43:03.249Z,10.15
2023-05-15T13:45:06.732Z,9.75
2023-05-15T13:47:10.198Z,9.10
2023-05-15T13:49:12.290Z,8.48
2023-05-15T13:51:14.207Z,37.63
2023-05-15T13:53:17.012Z,9.32
2023-05-15T13:55:20.904Z,9.20
2023-05-15T13:57:24.896Z,12.05
2023-05-15T13:59:26.998Z,9.60
2023-05-15T14:01:29.297Z,26.58
2023-05-15T14:03:32.776Z,17.92
2023-05-15T14:05:35.137Z,22.08
2023-05-15T14:07:37.695Z,25.20
2023-05-15T14:09:39.678Z,8.93
2023-05-15T14:11:41.604Z,13.25
2023-05-15T14:13:43.610Z,9.80
2023-05-15T14:15:45.554Z,9.00
2023-05-15T14:17:48.698Z,8.02
2023-05-15T14:19:52.431Z,43.50
2023-05-15T14:21:54.462Z,9.73
2023-05-15T14:23:56.692Z,14.20
2023-05-15T14:25:58.648Z,19.08
2023-05-15T14:28:00.690Z,13.02
2023-05-15T14:30:02.764Z,13.82
2023-05-15T14:32:05.407Z,12.13
2023-05-15T14:34:07.450Z,9.02
2023-05-15T14:36:10.943Z,11.63
2023-05-15T14:38:12.981Z,10.70
2023-05-15T14:40:14.971Z,11.85
2023-05-15T14:42:18.805Z,11.52
2023-05-15T14:44:20.754Z,13.88
2023-05-15T14:46:22.900Z,11.45
2023-05-15T14:48:25.339Z,11.55
2023-05-15T14:50:28.386Z,11.20
2023-05-15T14:52:31.858Z,8.77
2023-05-15T14:54:35.497Z,9.20
2023-05-15T14:56:37.715Z,10.65
2023-05-15T14:58:39.719Z,17.73
2023-05-15T15:00:41.795Z,17.33
2023-05-15T15:02:44.188Z,17.08
2023-05-15T15:04:46.329Z,10.90
2023-05-15T15:06:48.770Z,9.18
2023-05-15T15:08:52.378Z,8.18
2023-05-15T15:10:54.334Z,10.02
2023-05-15T15:12:57.003Z,9.02
2023-05-15T15:14:59.080Z,14.73
2023-05-15T15:17:02.080Z,13.60
2023-05-15T15:19:04.033Z,4.78
2023-05-15T15:21:06.266Z,6.15
2023-05-15T15:23:08.786Z,4.95
2023-05-15T15:25:12.368Z,3.88
2023-05-15T15:27:14.330Z,17.92
2023-05-15T15:29:16.420Z,41.35
2023-05-15T15:31:19.004Z,9.40
2023-05-15T15:33:21.041Z,3.90
2023-05-15T15:35:23.376Z,3.63
2023-05-15T15:37:26.168Z,12.55
2023-05-15T15:39:28.067Z,2.97
2023-05-15T15:41:31.636Z,1.73
2023-05-15T15:43:33.543Z,4.63
2023-05-15T15:45:35.618Z,3.20
2023-05-15T15:47:37.656Z,2.63
2023-05-15T15:49:39.658Z,10.80
2023-05-15T15:51:41.744Z,1.50
2023-05-15T15:53:43.729Z,7.43
2023-05-15T15:55:47.216Z,36.42
2023-05-15T15:57:50.784Z,1.73
2023-05-15T15:59:53.030Z,2.38
2023-05-15T16:01:55.103Z,3.53
2023-05-15T16:03:57.303Z,21.85
2023-05-15T16:06:00.335Z,2.92
2023-05-15T16:08:02.570Z,2.55
2023-05-15T16:10:12.232Z,7.78
2023-05-15T16:12:14.784Z,5.18
2023-05-15T16:14:19.338Z,10.73
2023-05-15T16:16:21.303Z,9.93
2023-05-15T16:18:23.347Z,8.18
2023-05-15T16:20:25.721Z,26.13
2023-05-15T16:22:28.291Z,16.08
2023-05-15T16:24:30.673Z,9.15
2023-05-15T16:26:33.290Z,7.90
2023-05-15T16:28:35.581Z,10.73
2023-05-15T16:30:47.926Z,9.07
2023-05-15T16:32:52.775Z,13.20
2023-05-15T16:34:54.750Z,10.60
2023-05-15T16:36:56.933Z,11.05
2023-05-15T16:39:01.448Z,9.35
2023-05-15T16:41:03.659Z,12.23
2023-05-15T16:43:05.845Z,6.78
2023-05-15T16:45:08.936Z,11.73
2023-05-15T16:47:13.746Z,13.98
2023-05-15T16:49:15.671Z,7.47
2023-05-15T16:51:17.660Z,7.45
2023-05-15T16:53:19.893Z,8.50
2023-05-15T16:55:22.922Z,9.35
2023-05-15T16:57:25.096Z,10.32
2023-05-15T16:59:27.097Z,7.55
2023-05-15T17:01:29.236Z,8.50
2023-05-15T17:03:32.782Z,7.10
2023-05-15T17:05:34.880Z,10.95
2023-05-15T17:07:37.400Z,9.13
2023-05-15T17:09:40.563Z,8.65
2023-05-15T17:11:42.649Z,8.45
2023-05-15T17:13:44.895Z,13.18
2023-05-15T17:15:49.602Z,8.18
2023-05-15T17:17:51.676Z,8.90
2023-05-15T17:19:55.158Z,6.60
2023-05-15T17:21:57.152Z,8.13
2023-05-15T17:23:59.345Z,10.18
2023-05-15T17:26:01.335Z,25.00
2023-05-15T17:28:03.403Z,13.02
2023-05-15T17:30:06.673Z,14.40
2023-05-15T17:32:09.139Z,14.70
2023-05-15T17:34:11.639Z,13.65
2023-05-15T17:36:14.950Z,25.17
2023-05-15T17:38:16.932Z,24.55
2023-05-15T17:40:18.991Z,13.98
2023-05-15T17:42:21.093Z,13.90
2023-05-15T17:44:27.804Z,15.55
2023-05-15T17:46:29.809Z,11.57
2023-05-15T17:48:32.803Z,13.68
2023-05-15T17:50:37.986Z,8.80
2023-05-15T17:52:41.412Z,12.52
2023-05-15T17:54:43.385Z,14.38
2023-05-15T17:56:45.655Z,31.73
2023-05-15T17:58:47.641Z,11.02
2023-05-15T18:00:51.719Z,14.02
2023-05-15T18:02:54.023Z,12.45
2023-05-15T18:04:56.176Z,8.77
2023-05-15T18:06:58.196Z,11.15
2023-05-15T18:09:01.656Z,18.42
2023-05-15T18:11:08.614Z,12.23
2023-05-15T18:13:19.849Z,13.98
2023-05-15T18:15:21.882Z,17.15
2023-05-15T18:17:24.097Z,11.48
2023-05-15T18:19:26.035Z,15.63
2023-05-15T18:21:28.146Z,20.75
2023-05-15T18:23:30.185Z,12.20
2023-05-15T18:25:36.831Z,12.50
2023-05-15T18:27:38.933Z,15.48
2023-05-15T18:29:40.966Z,18.02
2023-05-15T18:31:43.136Z,12.23
2023-05-15T18:33:45.224Z,14.50
2023-05-15T18:35:47.233Z,11.68
2023-05-15T18:37:49.199Z,13.15
2023-05-15T18:39:51.961Z,15.50
2023-05-15T18:41:55.364Z,16.17
2023-05-15T18:43:57.416Z,15.13
2023-05-15T18:45:59.422Z,12.68
2023-05-15T18:48:01.427Z,17.05
2023-05-15T18:50:03.560Z,13.95
2023-05-15T18:52:06.233Z,13.07
2023-05-15T18:54:08.244Z,14.10
2023-05-15T18:56:10.679Z,11.10
2023-05-15T18:58:14.077Z,13.55
2023-05-15T19:00:26.645Z,13.88
2023-05-15T19:02:40.293Z,12.27
2023-05-15T19:04:42.379Z,13.35
2023-05-15T19:06:44.431Z,9.95
2023-05-15T19:08:47.096Z,11.43
2023-05-15T19:10:49.048Z,18.80
2023-05-15T19:12:51.409Z,14.50
2023-05-15T19:14:55.285Z,11.57
2023-05-15T19:16:57.482Z,12.73
2023-05-15T19:18:59.536Z,11.27
2023-05-15T19:21:01.644Z,13.63
2023-05-15T19:23:03.781Z,8.75
2023-05-15T19:25:06.758Z,13.82
2023-05-15T19:27:08.790Z,10.30
2023-05-15T19:29:10.980Z,13.68
2023-05-15T19:31:27.922Z,9.63
2023-05-15T19:33:33.995Z,8.68
2023-05-15T19:35:37.475Z,10.02
2023-05-15T19:37:39.827Z,9.23
2023-05-15T19:39:41.770Z,14.38
2023-05-15T19:41:45.007Z,12.13
2023-05-15T19:43:50.378Z,13.27
2023-05-15T19:45:52.414Z,13.27
2023-05-15T19:47:55.944Z,9.27
2023-05-15T19:49:57.978Z,9.45
2023-05-15T19:51:59.968Z,11.30
2023-05-15T19:54:02.231Z,11.38
2023-05-15T19:56:04.835Z,8.48
2023-05-15T19:58:06.834Z,14.88
2023-05-15T20:00:10.480Z,10.75
2023-05-15T20:02:12.524Z,9.60
2023-05-15T20:04:16.152Z,7.95
2023-05-15T20:06:18.150Z,10.50
2023-05-15T20:08:20.469Z,7.05
2023-05-15T20:10:22.790Z,8.57
2023-05-15T20:12:24.844Z,7.82
2023-05-15T20:14:26.818Z,11.38
2023-05-15T20:16:28.774Z,7.60
2023-05-15T20:18:33.794Z,11.07
2023-05-15T20:20:38.283Z,10.90
2023-05-15T20:22:43.327Z,12.07
2023-05-15T20:26:47.980Z,10.38
2023-05-15T20:28:49.895Z,14.05
2023-05-15T20:30:52.352Z,9.38
2023-05-15T20:32:54.470Z,9.20
2023-05-15T20:34:56.720Z,8.13
2023-05-15T20:37:00.898Z,9.25
2023-05-15T20:39:05.900Z,9.65
2023-05-15T20:41:08.177Z,10.13
2023-05-15T20:43:10.697Z,9.98
2023-05-15T20:45:12.629Z,11.82
2023-05-15T20:47:15.123Z,14.98
2023-05-15T20:49:17.337Z,8.52
2023-05-15T20:51:19.372Z,8.60
2023-05-15T20:53:23.055Z,9.48
2023-05-15T20:55:25.039Z,8.02
2023-05-15T20:57:26.948Z,11.07
2023-05-15T20:59:28.933Z,18.50
2023-05-15T21:01:30.992Z,11.35
2023-05-15T21:03:33.109Z,9.13
2023-05-15T21:05:35.233Z,11.02
2023-05-15T21:07:37.502Z,11.80
2023-05-15T21:09:40.908Z,12.90
2023-05-15T21:11:42.989Z,10.88
2023-05-15T21:13:44.943Z,9.45
2023-05-15T21:15:47.142Z,12.25
2023-05-15T21:17:52.067Z,10.57
2023-05-15T21:19:57.407Z,7.70
2023-05-15T21:21:59.387Z,11.07
2023-05-15T21:24:03.414Z,14.45
2023-05-15T21:26:06.988Z,8.50
2023-05-15T21:28:09.171Z,10.55
2023-05-15T21:30:12.279Z,13.45
2023-05-15T21:32:14.265Z,10.98
2023-05-15T21:34:16.394Z,9.20
2023-05-15T21:36:18.918Z,9.55
2023-05-15T21:38:26.848Z,11.38
2023-05-15T21:40:29.051Z,7.55
2023-05-15T21:42:33.004Z,7.88
2023-05-15T21:44:35.107Z,12.32
2023-05-15T21:46:37.128Z,17.00
2023-05-15T21:48:39.074Z,13.82
2023-05-15T21:50:41.143Z,16.63
2023-05-15T21:52:43.500Z,9.63
2023-05-15T21:54:45.751Z,8.20
2023-05-15T21:56:47.724Z,11.77
2023-05-15T21:58:52.595Z,11.32
2023-05-15T22:00:54.976Z,15.88
2023-05-15T22:02:56.998Z,16.00
2023-05-15T22:04:59.262Z,11.63
2023-05-15T22:07:01.305Z,17.63
2023-05-15T22:09:03.484Z,12.68
2023-05-15T22:11:06.612Z,13.52
2023-05-15T22:13:09.832Z,12.30
2023-05-15T22:15:16.163Z,15.50
2023-05-15T22:17:21.028Z,11.77
2023-05-15T22:21:35.838Z,17.55
2023-05-15T22:23:37.897Z,18.65
2023-05-15T22:25:39.972Z,12.02
2023-05-15T22:27:42.097Z,15.05
2023-05-15T22:29:44.297Z,16.30
2023-05-15T22:31:47.735Z,16.25
2023-05-15T22:33:49.843Z,16.48
2023-05-15T22:35:52.840Z,9.95
2023-05-15T22:37:54.869Z,11.80
2023-05-15T22:39:56.849Z,13.48
2023-05-15T22:41:58.969Z,9.95
2023-05-15T22:44:01.809Z,14.68
2023-05-15T22:46:03.900Z,15.35
2023-05-15T22:48:07.404Z,21.55
2023-05-15T22:50:10.269Z,11.55
2023-05-15T22:52:14.045Z,23.75
2023-05-15T22:54:16.150Z,16.33
2023-05-15T22:56:18.144Z,15.18
2023-05-15T22:58:20.581Z,20.60
2023-05-15T23:00:22.574Z,16.63
2023-05-15T23:02:24.713Z,17.02
2023-05-15T23:04:28.109Z,18.00
2023-05-15T23:06:31.223Z,16.20
2023-05-15T23:08:33.347Z,16.60
2023-05-15T23:10:35.452Z,16.33
2023-05-15T23:12:37.491Z,18.45
2023-05-15T23:14:40.197Z,16.25
2023-05-15T23:16:42.586Z,19.75
2023-05-15T23:18:44.549Z,14.07
2023-05-15T23:20:47.971Z,16.00
2023-05-15T23:22:49.952Z,11.32
2023-05-15T23:24:51.986Z,20.40
2023-05-15T23:26:54.068Z,18.70
2023-05-15T23:28:56.053Z,18.23
2023-05-15T23:30:58.127Z,17.58
2023-05-15T23:33:00.391Z,17.23
2023-05-15T23:35:02.586Z,16.67
2023-05-15T23:37:06.210Z,18.80
2023-05-15T23:39:09.001Z,17.65
2023-05-15T23:41:10.965Z,19.00
2023-05-15T23:43:13.128Z,21.05
2023-05-15T23:45:15.537Z,13.93
2023-05-15T23:47:17.527Z,14.40
2023-05-15T23:49:19.638Z,17.50
2023-05-15T23:51:22.184Z,18.08
2023-05-15T23:53:25.590Z,16.23
2023-05-15T23:55:27.628Z,20.80
2023-05-15T23:57:29.680Z,18.92
2023-05-15T23:59:31.638Z,17.70
